createdAt,value
2022-12-01T00:00:58.426Z,51.28
2022-12-01T00:03:31.453Z,48.63
2022-12-01T00:06:03.486Z,54.70
2022-12-01T00:08:35.056Z,50.35
2022-12-01T00:11:12.607Z,49.75
2022-12-01T00:13:43.026Z,52.55
2022-12-01T00:16:17.657Z,56.50
2022-12-01T00:18:51.317Z,55.20
2022-12-01T00:21:23.972Z,43.05
2022-12-01T00:23:57.761Z,42.80
2022-12-01T00:26:32.085Z,40.13
2022-12-01T00:29:02.825Z,43.22
2022-12-01T00:31:34.010Z,46.72
2022-12-01T00:34:09.695Z,43.92
2022-12-01T00:36:42.435Z,47.17
2022-12-01T00:39:12.826Z,48.30
2022-12-01T00:41:45.214Z,45.80
2022-12-01T00:44:16.058Z,48.53
2022-12-01T00:49:17.508Z,40.00
2022-12-01T00:51:48.727Z,41.58
2022-12-01T00:54:19.516Z,38.60
2022-12-01T00:56:51.883Z,38.80
2022-12-01T00:59:22.205Z,35.80
2022-12-01T01:01:54.459Z,42.70
2022-12-01T01:04:25.098Z,38.05
2022-12-01T01:06:56.186Z,39.67
2022-12-01T01:09:26.734Z,38.58
2022-12-01T01:11:59.325Z,41.90
2022-12-01T01:14:30.944Z,37.47
2022-12-01T01:17:01.877Z,40.25
2022-12-01T01:19:33.086Z,44.20
2022-12-01T01:24:35.556Z,43.03
2022-12-01T01:27:08.055Z,41.20
2022-12-01T01:29:39.215Z,41.30
2022-12-01T01:34:40.328Z,43.80
2022-12-01T01:37:11.503Z,43.70
2022-12-01T01:39:42.139Z,43.27
2022-12-01T01:42:15.987Z,44.28
2022-12-01T01:44:52.966Z,42.45
2022-12-01T01:47:27.166Z,42.85
2022-12-01T01:50:01.107Z,38.28
2022-12-01T01:52:32.016Z,31.77
2022-12-01T01:55:02.716Z,32.90
2022-12-01T01:57:35.966Z,36.15
2022-12-01T02:00:09.625Z,34.40
2022-12-01T02:02:46.131Z,30.02
2022-12-01T02:05:21.306Z,34.63
2022-12-01T02:07:54.096Z,34.28
2022-12-01T02:10:30.596Z,36.95
2022-12-01T02:13:17.871Z,36.08
2022-12-01T02:15:58.359Z,35.45
2022-12-01T02:18:39.756Z,36.33
2022-12-01T02:21:35.695Z,32.30
2022-12-01T02:24:38.773Z,32.67
2022-12-01T02:27:21.676Z,32.15
2022-12-01T02:30:11.184Z,28.30
2022-12-01T02:33:00.544Z,29.35
2022-12-01T02:35:39.484Z,25.02
2022-12-01T02:38:15.906Z,23.77
2022-12-01T02:40:54.977Z,24.55
2022-12-01T02:43:33.329Z,26.80
2022-12-01T02:46:11.170Z,27.23
2022-12-01T02:48:46.055Z,26.23
2022-12-01T02:51:22.346Z,21.02
2022-12-01T02:53:53.418Z,23.40
2022-12-01T02:56:25.245Z,23.35
2022-12-01T02:58:56.118Z,24.48
2022-12-01T03:01:52.897Z,24.33
2022-12-01T03:04:39.188Z,22.30
2022-12-01T03:07:25.152Z,19.33
2022-12-01T03:10:19.005Z,20.70
2022-12-01T03:13:01.405Z,21.85
2022-12-01T03:15:38.189Z,21.10
2022-12-01T03:18:20.633Z,24.95
2022-12-01T03:21:02.167Z,22.80
2022-12-01T03:23:38.342Z,20.25
2022-12-01T03:26:12.796Z,23.25
2022-12-01T03:28:49.927Z,22.85
2022-12-01T03:31:26.470Z,18.90
2022-12-01T03:34:06.915Z,16.17
2022-12-01T03:36:41.936Z,18.98
2022-12-01T03:39:16.623Z,19.33
2022-12-01T03:41:51.176Z,20.23
2022-12-01T03:44:26.554Z,17.60
2022-12-01T03:46:59.966Z,20.15
2022-12-01T03:49:32.105Z,17.90
2022-12-01T03:52:12.677Z,20.55
2022-12-01T03:54:50.828Z,18.63
2022-12-01T03:57:27.787Z,21.30
2022-12-01T03:59:58.844Z,19.90
2022-12-01T04:02:31.169Z,19.63
2022-12-01T04:05:02.556Z,19.48
2022-12-01T04:07:34.577Z,19.67
2022-12-01T04:10:05.996Z,20.98
2022-12-01T04:12:35.475Z,19.92
2022-12-01T04:15:09.575Z,18.75
2022-12-01T04:17:40.556Z,21.20
2022-12-01T04:20:12.965Z,20.63
2022-12-01T04:22:45.275Z,20.95
2022-12-01T04:25:16.226Z,18.83
2022-12-01T04:27:47.816Z,21.40
2022-12-01T04:30:19.157Z,18.92
2022-12-01T04:32:49.677Z,18.52
2022-12-01T04:35:20.577Z,17.65
2022-12-01T04:37:52.516Z,17.10
2022-12-01T04:40:23.265Z,18.42
2022-12-01T04:42:53.736Z,18.15
2022-12-01T04:45:24.566Z,18.13
2022-12-01T04:47:55.814Z,16.73
2022-12-01T04:52:58.116Z,18.40
2022-12-01T04:55:28.947Z,17.30
2022-12-01T04:58:01.706Z,20.17
2022-12-01T05:00:32.774Z,18.65
2022-12-01T05:03:03.976Z,18.33
2022-12-01T05:05:34.875Z,15.85
2022-12-01T05:08:09.109Z,19.52
2022-12-01T05:10:40.575Z,19.20
2022-12-01T05:13:11.045Z,21.48
2022-12-01T05:15:42.536Z,20.63
2022-12-01T05:18:13.085Z,20.48
2022-12-01T05:20:57.954Z,22.70
2022-12-01T05:23:31.883Z,21.33
2022-12-01T05:26:04.212Z,18.55
2022-12-01T05:28:34.646Z,20.50
2022-12-01T05:31:05.848Z,20.60
2022-12-01T05:33:36.494Z,22.70
2022-12-01T05:36:08.236Z,21.15
2022-12-01T05:38:40.166Z,21.35
2022-12-01T05:41:11.566Z,22.10
2022-12-01T05:43:41.878Z,17.63
2022-12-01T05:46:12.812Z,19.60
2022-12-01T05:48:43.916Z,19.23
2022-12-01T05:51:16.616Z,26.23
2022-12-01T05:53:48.890Z,19.35
2022-12-01T05:56:19.776Z,22.67
2022-12-01T05:58:50.158Z,21.63
2022-12-01T06:01:21.167Z,19.73
2022-12-01T06:03:51.651Z,22.90
2022-12-01T06:06:22.681Z,23.58
2022-12-01T06:08:54.465Z,19.15
2022-12-01T06:11:25.348Z,15.20
2022-12-01T06:13:55.808Z,18.73
2022-12-01T06:16:27.656Z,20.10
2022-12-01T06:21:29.011Z,18.67
2022-12-01T06:24:01.246Z,22.67
2022-12-01T06:26:32.193Z,22.65
2022-12-01T06:29:02.707Z,25.63
2022-12-01T06:31:33.805Z,25.48
2022-12-01T06:34:04.226Z,21.23
2022-12-01T06:36:35.496Z,20.45
2022-12-01T06:39:16.895Z,18.77
2022-12-01T06:41:48.344Z,21.23
2022-12-01T06:44:18.803Z,21.98
2022-12-01T06:46:53.194Z,21.00
2022-12-01T06:49:23.886Z,19.88
2022-12-01T06:52:00.970Z,20.88
2022-12-01T06:54:33.874Z,20.73
2022-12-01T06:57:05.446Z,21.80
2022-12-01T06:59:36.966Z,18.48
2022-12-01T07:02:08.550Z,19.77
2022-12-01T07:04:39.345Z,18.95
2022-12-01T07:07:11.635Z,17.83
2022-12-01T07:09:43.684Z,17.75
2022-12-01T07:12:16.515Z,20.10
2022-12-01T07:14:47.136Z,21.15
2022-12-01T07:17:18.147Z,21.38
2022-12-01T07:19:48.776Z,20.50
2022-12-01T07:22:23.356Z,19.15
2022-12-01T07:24:57.156Z,21.55
2022-12-01T07:27:31.295Z,20.58
2022-12-01T07:30:02.028Z,22.88
2022-12-01T07:32:33.392Z,22.65
2022-12-01T07:35:05.501Z,19.67
2022-12-01T07:37:36.320Z,20.45
2022-12-01T07:40:10.943Z,21.77
2022-12-01T07:42:44.041Z,20.60
2022-12-01T07:45:14.691Z,25.20
2022-12-01T07:47:46.213Z,23.50
2022-12-01T07:50:16.893Z,29.85
2022-12-01T07:52:51.597Z,22.35
2022-12-01T07:55:23.892Z,23.42
2022-12-01T07:57:55.161Z,21.88
2022-12-01T08:00:26.077Z,24.48
2022-12-01T08:02:57.596Z,23.42
2022-12-01T08:05:30.697Z,22.90
2022-12-01T08:08:01.941Z,25.67
2022-12-01T08:10:34.028Z,22.80
2022-12-01T08:13:05.865Z,24.83
2022-12-01T08:15:37.367Z,27.15
2022-12-01T08:18:08.578Z,21.17
2022-12-01T08:20:39.005Z,21.67
2022-12-01T08:23:09.981Z,21.58
2022-12-01T08:25:44.565Z,18.60
2022-12-01T08:28:15.743Z,21.42
2022-12-01T08:30:46.487Z,21.85
2022-12-01T08:33:17.644Z,17.70
2022-12-01T08:35:49.233Z,15.30
2022-12-01T08:38:20.886Z,16.10
2022-12-01T08:40:52.888Z,16.48
2022-12-01T08:46:15.938Z,19.48
2022-12-01T08:48:47.204Z,15.23
2022-12-01T08:51:20.963Z,12.52
2022-12-01T08:53:54.995Z,15.55
2022-12-01T08:56:36.584Z,16.77
2022-12-01T08:59:09.363Z,17.42
2022-12-01T09:01:52.513Z,17.52
2022-12-01T09:04:24.988Z,14.52
2022-12-01T09:06:58.376Z,17.27
2022-12-01T09:09:33.544Z,16.50
2022-12-01T09:12:07.915Z,18.65
2022-12-01T09:14:40.755Z,19.63
2022-12-01T09:17:11.704Z,16.92
2022-12-01T09:22:13.644Z,18.92
2022-12-01T09:27:16.183Z,17.38
2022-12-01T09:29:47.405Z,19.85
2022-12-01T09:32:18.446Z,16.50
2022-12-01T09:34:49.658Z,16.48
2022-12-01T09:37:20.595Z,16.23
2022-12-01T09:39:52.207Z,18.60
2022-12-01T09:42:32.399Z,17.67
2022-12-01T09:45:07.634Z,15.18
2022-12-01T09:47:40.507Z,16.63
2022-12-01T09:50:19.195Z,17.10
2022-12-01T09:52:52.675Z,15.68
2022-12-01T09:55:26.695Z,16.13
2022-12-01T09:58:00.605Z,20.48
2022-12-01T10:00:34.902Z,17.65
2022-12-01T10:03:16.824Z,13.60
2022-12-01T10:06:25.009Z,16.65
2022-12-01T10:08:45.964Z,15.98
2022-12-01T10:11:29.673Z,12.90
2022-12-01T10:14:05.004Z,14.05
2022-12-01T10:16:43.103Z,14.13
2022-12-01T10:19:19.705Z,16.42
2022-12-01T10:22:07.994Z,12.15
2022-12-01T10:24:54.506Z,15.07
2022-12-01T10:27:39.202Z,14.13
2022-12-01T10:30:16.194Z,14.90
2022-12-01T10:32:53.994Z,17.63
2022-12-01T10:35:27.595Z,13.98
2022-12-01T10:38:02.263Z,15.93
2022-12-01T10:40:35.664Z,15.85
2022-12-01T10:43:08.035Z,12.32
2022-12-01T10:45:45.651Z,12.10
2022-12-01T10:48:18.794Z,13.48
2022-12-01T10:50:51.119Z,12.82
2022-12-01T10:53:33.999Z,15.18
2022-12-01T10:56:12.400Z,11.65
2022-12-01T10:58:48.605Z,12.65
2022-12-01T11:01:22.776Z,13.52
2022-12-01T11:03:57.440Z,11.82
2022-12-01T11:06:31.032Z,13.02
2022-12-01T11:09:04.065Z,12.30
2022-12-01T11:11:37.514Z,13.40
2022-12-01T11:14:19.796Z,11.90
2022-12-01T11:19:31.851Z,13.52
2022-12-01T11:22:06.033Z,11.85
2022-12-01T11:24:44.543Z,11.43
2022-12-01T11:27:19.526Z,10.35
2022-12-01T11:29:53.195Z,12.82
2022-12-01T11:32:29.164Z,11.00
2022-12-01T11:35:26.505Z,12.85
2022-12-01T11:38:28.406Z,10.90
2022-12-01T11:40:54.947Z,10.07
2022-12-01T11:43:30.675Z,11.60
2022-12-01T11:46:07.188Z,8.40
2022-12-01T11:48:40.735Z,10.18
2022-12-01T11:51:17.576Z,10.07
2022-12-01T11:53:51.796Z,12.48
2022-12-01T11:56:26.565Z,16.23
2022-12-01T11:59:01.336Z,9.15
2022-12-01T12:01:42.376Z,12.30
2022-12-01T12:04:29.348Z,11.07
2022-12-01T12:07:09.225Z,10.20
2022-12-01T12:09:53.376Z,15.77
2022-12-01T12:12:37.606Z,9.65
2022-12-01T12:15:19.775Z,12.93
2022-12-01T12:18:06.243Z,7.88
2022-12-01T12:20:48.787Z,8.43
2022-12-01T12:23:36.822Z,8.02
2022-12-01T12:26:16.188Z,8.70
2022-12-01T12:29:13.511Z,8.90
2022-12-01T12:32:01.295Z,9.80
2022-12-01T12:34:42.856Z,7.35
2022-12-01T12:37:26.386Z,27.33
2022-12-01T12:40:12.257Z,8.05
2022-12-01T12:42:52.227Z,7.65
2022-12-01T12:45:30.386Z,7.47
2022-12-01T12:48:16.136Z,7.88
2022-12-01T12:50:56.946Z,25.88
2022-12-01T12:53:36.255Z,9.88
2022-12-01T12:56:13.927Z,9.50
2022-12-01T12:58:52.601Z,7.82
2022-12-01T13:01:28.498Z,9.65
2022-12-01T13:04:03.476Z,8.40
2022-12-01T13:06:42.572Z,9.27
2022-12-01T13:09:20.115Z,9.93
2022-12-01T13:11:57.351Z,10.43
2022-12-01T13:14:34.591Z,9.45
2022-12-01T13:17:20.250Z,9.68
2022-12-01T13:19:51.239Z,10.65
2022-12-01T13:22:26.719Z,12.48
2022-12-01T13:24:59.010Z,9.45
2022-12-01T13:27:33.661Z,10.77
2022-12-01T13:30:04.611Z,14.48
2022-12-01T13:35:09.608Z,14.07
2022-12-01T13:37:41.767Z,14.23
2022-12-01T13:40:23.842Z,16.17
2022-12-01T13:43:05.517Z,17.02
2022-12-01T13:45:42.339Z,15.27
2022-12-01T13:48:29.819Z,16.08
2022-12-01T13:51:02.996Z,18.05
2022-12-01T13:53:36.488Z,13.25
2022-12-01T13:56:29.323Z,12.77
2022-12-01T13:59:00.450Z,12.68
2022-12-01T14:01:51.451Z,11.47
2022-12-01T14:04:31.660Z,16.50
2022-12-01T17:12:10.630Z,34.72
2022-12-01T17:14:43.508Z,42.28
2022-12-01T17:17:13.620Z,36.92
2022-12-01T17:19:43.959Z,42.20
2022-12-01T17:22:22.045Z,42.65
2022-12-01T17:24:55.874Z,40.35
2022-12-01T17:27:34.275Z,46.83
2022-12-01T17:32:54.465Z,37.92
2022-12-01T17:35:29.489Z,36.92
2022-12-01T17:37:59.815Z,32.38
2022-12-01T17:40:32.498Z,33.08
2022-12-01T17:43:06.128Z,40.00
2022-12-01T17:45:42.241Z,46.20
2022-12-01T17:48:13.624Z,41.95
2022-12-01T17:50:47.260Z,40.60
2022-12-01T17:53:17.555Z,36.50
2022-12-01T17:55:49.590Z,43.78
2022-12-01T17:58:22.057Z,57.65
2022-12-01T18:00:58.079Z,66.50
2022-12-01T18:03:28.250Z,62.22
2022-12-01T18:05:59.518Z,68.18
2022-12-01T18:08:31.878Z,65.75
2022-12-01T18:11:03.866Z,69.45
2022-12-01T18:13:38.075Z,74.60
2022-12-01T18:16:10.332Z,65.55
2022-12-01T18:18:40.914Z,57.45
2022-12-01T18:21:14.156Z,57.08
2022-12-01T18:23:49.482Z,46.90
2022-12-01T18:26:22.985Z,33.10
2022-12-01T18:28:58.837Z,31.42
2022-12-01T18:31:30.731Z,31.65
2022-12-01T18:34:03.435Z,28.30
2022-12-01T18:36:36.345Z,33.13
2022-12-01T18:39:09.295Z,52.38
2022-12-01T18:41:41.038Z,43.20
2022-12-01T18:44:13.466Z,39.78
2022-12-01T18:46:44.186Z,44.35
2022-12-01T18:49:14.511Z,45.45
2022-12-01T18:51:46.079Z,37.90
2022-12-01T18:54:18.245Z,44.08
2022-12-01T18:56:52.167Z,55.70
2022-12-01T18:59:23.639Z,59.25
2022-12-01T19:01:54.101Z,54.47
2022-12-01T19:04:24.135Z,54.58
2022-12-01T19:06:55.177Z,78.30
2022-12-01T19:09:25.254Z,70.15
2022-12-01T19:12:00.105Z,78.82
2022-12-01T19:14:31.615Z,73.80
2022-12-01T19:17:01.936Z,65.63
2022-12-01T19:19:37.136Z,77.60
2022-12-01T19:22:07.835Z,74.43
2022-12-01T19:24:37.877Z,69.97
2022-12-01T19:27:08.486Z,68.60
2022-12-01T19:29:40.072Z,68.85
2022-12-01T19:32:12.128Z,74.75
2022-12-01T19:34:42.145Z,61.55
2022-12-01T19:37:12.686Z,66.85
2022-12-01T19:39:42.588Z,67.32
2022-12-01T19:42:13.800Z,80.60
2022-12-01T19:44:45.498Z,71.88
2022-12-01T19:47:21.896Z,75.25
2022-12-01T19:49:57.145Z,74.90
2022-12-01T19:52:36.422Z,63.60
2022-12-01T19:55:08.388Z,68.20
2022-12-01T19:57:46.109Z,72.55
2022-12-01T20:00:26.137Z,55.22
2022-12-01T20:02:56.399Z,64.47
2022-12-01T20:05:34.343Z,65.03
2022-12-01T20:08:04.959Z,60.65
2022-12-01T20:10:37.289Z,56.88
2022-12-01T20:13:07.799Z,63.13
2022-12-01T20:15:39.069Z,61.45
2022-12-01T20:20:38.977Z,45.60
2022-12-01T20:23:09.214Z,45.83
2022-12-01T20:25:40.123Z,46.50
2022-12-01T20:28:10.495Z,46.60
2022-12-01T20:30:44.196Z,49.20
2022-12-01T20:33:14.545Z,43.65
2022-12-01T20:35:44.714Z,45.25
2022-12-01T20:38:15.034Z,43.38
2022-12-01T20:40:45.156Z,49.22
2022-12-01T20:43:15.547Z,53.28
2022-12-01T20:45:47.068Z,55.45
2022-12-01T20:48:17.515Z,57.42
2022-12-01T20:50:47.564Z,54.83
2022-12-01T20:53:17.814Z,52.70
2022-12-01T20:55:47.867Z,52.13
2022-12-01T20:58:18.513Z,51.50
2022-12-01T21:00:51.960Z,47.95
2022-12-01T21:03:22.434Z,46.15
2022-12-01T21:05:52.585Z,53.60
2022-12-01T21:08:23.956Z,51.85
2022-12-01T21:13:42.472Z,51.65
2022-12-01T21:16:21.553Z,52.47
2022-12-01T21:18:55.163Z,51.45
2022-12-01T21:21:28.095Z,46.13
2022-12-01T21:24:20.525Z,47.88
2022-12-01T21:26:56.195Z,50.15
2022-12-01T21:29:28.110Z,56.20
2022-12-01T21:34:35.354Z,69.88
2022-12-01T21:37:12.936Z,87.20
2022-12-01T21:39:43.152Z,71.72
2022-12-01T21:42:19.645Z,67.68
2022-12-01T21:44:51.065Z,75.22
2022-12-01T21:47:25.634Z,69.57
2022-12-01T21:49:59.015Z,70.30
2022-12-01T21:52:33.132Z,72.50
2022-12-01T21:55:11.122Z,70.53
2022-12-01T21:57:43.596Z,74.40
2022-12-01T22:00:28.976Z,66.18
2022-12-01T22:06:21.194Z,58.33
2022-12-01T22:08:50.605Z,49.38
2022-12-01T22:11:23.228Z,52.53
2022-12-01T22:14:00.628Z,47.28
2022-12-01T22:16:33.480Z,43.08
2022-12-01T22:19:19.469Z,40.58
2022-12-01T22:21:51.959Z,42.67
2022-12-01T22:24:27.257Z,36.10
2022-12-01T22:27:13.240Z,33.90
2022-12-01T22:29:45.836Z,39.55
2022-12-01T22:32:35.881Z,33.92
2022-12-01T22:35:25.885Z,33.63
2022-12-01T22:38:01.535Z,35.90
2022-12-01T22:40:41.623Z,36.28
2022-12-01T22:43:26.033Z,35.63
2022-12-01T22:46:15.553Z,34.90
2022-12-01T22:48:47.639Z,36.28
2022-12-01T22:51:40.181Z,37.75
2022-12-01T22:54:34.079Z,32.70
2022-12-01T22:57:33.449Z,33.85
2022-12-01T23:00:15.629Z,35.22
2022-12-01T23:02:49.011Z,32.25
2022-12-01T23:05:26.197Z,32.90
2022-12-01T23:07:57.842Z,34.55
2022-12-01T23:10:32.639Z,35.03
2022-12-01T23:13:14.588Z,36.80
2022-12-01T23:15:48.002Z,33.40
2022-12-01T23:18:22.015Z,38.78
2022-12-01T23:20:53.893Z,33.03
2022-12-01T23:23:28.902Z,40.08
2022-12-01T23:26:02.977Z,33.25
2022-12-01T23:28:33.808Z,37.28
2022-12-01T23:31:03.827Z,32.95
2022-12-01T23:33:35.360Z,36.80
2022-12-01T23:36:07.457Z,36.05
2022-12-01T23:38:39.442Z,37.80
2022-12-01T23:41:15.281Z,34.92
2022-12-01T23:43:46.963Z,28.95
2022-12-01T23:46:20.012Z,36.15
2022-12-01T23:48:55.559Z,35.00
2022-12-01T23:51:27.322Z,31.70
2022-12-01T23:53:59.637Z,31.30
2022-12-01T23:56:34.351Z,29.58
2022-12-01T23:59:04.832Z,37.28
